createdAt,value
2023-02-23T00:02:09.339Z,97267.13
2023-02-23T00:04:38.154Z,97272.47
2023-02-23T00:07:08.345Z,97267.34
2023-02-23T00:09:36.602Z,97263.94
2023-02-23T00:12:08.748Z,97257.97
2023-02-23T00:14:38.782Z,97260.63
2023-02-23T00:17:14.313Z,97262.44
2023-02-23T00:19:43.789Z,97255.41
2023-02-23T00:22:13.790Z,97258.91
2023-02-23T00:24:42.793Z,97261.66
2023-02-23T00:27:17.602Z,97263.56
2023-02-23T00:29:49.379Z,97259.38
2023-02-23T00:32:19.988Z,97259.38
2023-02-23T00:34:49.750Z,97259.31
2023-02-23T00:37:19.974Z,97262.91
2023-02-23T00:39:49.653Z,97256.28
2023-02-23T00:42:17.747Z,97260.59
2023-02-23T00:44:47.669Z,97251.38
2023-02-23T00:47:15.754Z,97253.16
2023-02-23T00:49:45.132Z,97255.75
2023-02-23T00:52:14.888Z,97261.09
2023-02-23T00:54:44.587Z,97262.00
2023-02-23T00:57:12.715Z,97259.63
2023-02-23T00:59:40.807Z,97267.59
2023-02-23T01:02:09.097Z,97254.63
2023-02-23T01:04:37.253Z,97268.50
2023-02-23T01:07:06.603Z,97269.41
2023-02-23T01:09:35.285Z,97264.28
2023-02-23T01:12:08.151Z,97265.91
2023-02-23T01:14:38.408Z,97263.41
2023-02-23T01:17:07.593Z,97268.72
2023-02-23T01:19:37.570Z,97256.94
2023-02-23T01:22:05.918Z,97270.66
2023-02-23T01:24:34.105Z,97268.22
2023-02-23T01:27:07.065Z,97277.06
2023-02-23T01:29:35.456Z,97265.13
2023-02-23T01:32:05.058Z,97271.13
2023-02-23T01:34:33.365Z,97252.34
2023-02-23T01:37:01.468Z,97263.50
2023-02-23T01:39:30.260Z,97261.00
2023-02-23T01:41:58.596Z,97262.63
2023-02-23T01:45:03.986Z,97260.84
2023-02-23T01:47:35.225Z,97261.19
2023-02-23T01:50:05.144Z,97256.19
2023-02-23T01:52:34.056Z,97264.75
2023-02-23T01:55:02.289Z,97255.25
2023-02-23T01:57:30.424Z,97256.28
2023-02-23T01:59:59.648Z,97252.69
2023-02-23T02:02:33.963Z,97254.66
2023-02-23T02:05:06.553Z,97255.53
2023-02-23T02:07:36.342Z,97253.09
2023-02-23T02:10:34.114Z,97252.25
2023-02-23T02:13:06.018Z,97258.19
2023-02-23T02:15:53.830Z,97256.38
2023-02-23T02:18:38.263Z,97252.16
2023-02-23T02:21:54.255Z,97247.09
2023-02-23T02:24:54.030Z,97246.41
2023-02-23T02:27:43.511Z,97247.41
2023-02-23T02:30:34.479Z,97236.44
2023-02-23T02:33:34.928Z,97238.06
2023-02-23T02:36:23.948Z,97244.94
2023-02-23T02:39:07.896Z,97253.63
2023-02-23T02:41:51.300Z,97242.38
2023-02-23T02:44:28.040Z,97247.59
2023-02-23T02:47:01.918Z,97260.84
2023-02-23T02:49:34.093Z,97245.34
2023-02-23T02:52:08.191Z,97244.47
2023-02-23T02:54:41.753Z,97243.69
2023-02-23T02:57:12.392Z,97253.19
2023-02-23T03:00:04.352Z,97246.38
2023-02-23T03:02:52.674Z,97249.06
2023-02-23T03:05:41.108Z,97244.66
2023-02-23T03:08:35.076Z,97244.66
2023-02-23T03:11:25.290Z,97255.13
2023-02-23T03:14:24.712Z,97244.88
2023-02-23T03:17:21.828Z,97253.63
2023-02-23T03:20:15.925Z,97252.84
2023-02-23T03:23:10.511Z,97254.69
2023-02-23T03:26:07.862Z,97252.06
2023-02-23T03:29:01.544Z,97255.47
2023-02-23T03:31:55.926Z,97255.38
2023-02-23T03:34:47.523Z,97265.13
2023-02-23T03:37:38.014Z,97254.03
2023-02-23T03:40:32.625Z,97266.13
2023-02-23T03:43:24.611Z,97268.75
2023-02-23T03:46:15.000Z,97269.72
2023-02-23T03:49:04.670Z,97267.94
2023-02-23T03:51:54.932Z,97265.50
2023-02-23T03:54:46.771Z,97277.75
2023-02-23T03:57:35.123Z,97275.19
2023-02-23T04:00:23.932Z,97279.59
2023-02-23T04:03:15.872Z,97277.78
2023-02-23T04:06:03.807Z,97275.38
2023-02-23T04:08:53.216Z,97277.09
2023-02-23T04:11:46.190Z,97280.47
2023-02-23T04:14:19.431Z,97278.69
2023-02-23T04:16:48.085Z,97271.78
2023-02-23T04:19:17.837Z,97279.72
2023-02-23T04:21:45.929Z,97268.44
2023-02-23T04:24:13.999Z,97254.56
2023-02-23T04:26:42.468Z,97258.06
2023-02-23T04:29:12.690Z,97263.22
2023-02-23T04:31:41.802Z,97270.16
2023-02-23T04:34:10.015Z,97275.38
2023-02-23T04:36:39.598Z,97273.72
2023-02-23T04:39:07.652Z,97286.63
2023-02-23T04:41:35.815Z,97289.22
2023-02-23T04:44:04.157Z,97280.41
2023-02-23T04:46:32.425Z,97276.13
2023-02-23T04:49:00.601Z,97273.47
2023-02-23T04:51:32.337Z,97276.00
2023-02-23T04:54:02.722Z,97283.16
2023-02-23T04:56:31.121Z,97290.16
2023-02-23T04:58:59.245Z,97293.59
2023-02-23T05:01:28.811Z,97285.69
2023-02-23T05:03:56.953Z,97282.34
2023-02-23T05:06:24.985Z,97281.53
2023-02-23T05:08:53.056Z,97279.63
2023-02-23T05:11:22.961Z,97283.09
2023-02-23T05:13:51.260Z,97285.03
2023-02-23T05:16:19.359Z,97286.69
2023-02-23T05:18:48.258Z,97287.66
2023-02-23T05:21:16.836Z,97289.47
2023-02-23T05:23:45.289Z,97293.88
2023-02-23T05:26:14.714Z,97291.44
2023-02-23T05:28:44.445Z,97296.75
2023-02-23T05:31:13.296Z,97301.16
2023-02-23T05:33:42.817Z,97296.00
2023-02-23T05:36:12.195Z,97294.28
2023-02-23T05:38:42.049Z,97297.63
2023-02-23T05:41:12.713Z,97300.38
2023-02-23T05:43:41.493Z,97299.53
2023-02-23T05:46:12.969Z,97310.84
2023-02-23T05:48:41.532Z,97304.69
2023-02-23T05:51:11.952Z,97303.88
2023-02-23T05:53:40.839Z,97305.44
2023-02-23T05:56:14.580Z,97307.16
2023-02-23T05:58:42.755Z,97295.03
2023-02-23T06:01:12.529Z,97300.25
2023-02-23T06:03:40.917Z,97305.31
2023-02-23T06:06:09.287Z,97306.22
2023-02-23T06:08:37.909Z,97307.00
2023-02-23T06:11:06.461Z,97304.34
2023-02-23T06:13:35.141Z,97303.50
2023-02-23T06:16:03.989Z,97305.00
2023-02-23T06:18:33.993Z,97311.84
2023-02-23T06:21:04.019Z,97307.25
2023-02-23T06:23:34.116Z,97315.72
2023-02-23T06:26:02.330Z,97317.22
2023-02-23T06:28:30.993Z,97329.81
2023-02-23T06:30:59.207Z,97336.47
2023-02-23T06:33:27.397Z,97344.75
2023-02-23T06:35:57.540Z,97347.38
2023-02-23T06:38:25.647Z,97357.84
2023-02-23T06:40:53.708Z,97351.06
2023-02-23T06:43:23.342Z,97360.88
2023-02-23T06:45:51.974Z,97365.81
2023-02-23T06:48:20.054Z,97362.84
2023-02-23T06:50:48.125Z,97371.91
2023-02-23T06:53:18.447Z,97378.31
2023-02-23T06:55:46.562Z,97381.00
2023-02-23T06:58:14.716Z,97381.03
2023-02-23T07:00:43.779Z,97381.50
2023-02-23T07:03:12.341Z,97379.25
2023-02-23T07:05:41.074Z,97385.00
2023-02-23T07:08:09.418Z,97382.25
2023-02-23T07:10:38.900Z,97389.63
2023-02-23T07:13:07.030Z,97386.34
2023-02-23T07:15:36.572Z,97392.03
2023-02-23T07:18:04.950Z,97389.97
2023-02-23T07:20:34.110Z,97401.94
2023-02-23T07:23:02.286Z,97406.69
2023-02-23T07:25:31.224Z,97401.25
2023-02-23T07:28:00.714Z,97401.09
2023-02-23T07:30:28.923Z,97408.31
2023-02-23T07:32:57.049Z,97401.00
2023-02-23T07:35:25.192Z,97401.38
2023-02-23T07:37:54.572Z,97402.03
2023-02-23T07:40:22.738Z,97400.38
2023-02-23T07:42:52.163Z,97402.22
2023-02-23T07:45:25.022Z,97408.03
2023-02-23T07:47:53.197Z,97408.44
2023-02-23T07:50:21.444Z,97418.13
2023-02-23T07:52:49.696Z,97410.13
2023-02-23T07:55:17.840Z,97418.16
2023-02-23T07:57:46.109Z,97419.59
2023-02-23T08:00:15.269Z,97420.88
2023-02-23T08:02:45.787Z,97421.25
2023-02-23T08:05:14.087Z,97418.28
2023-02-23T08:07:42.264Z,97413.22
2023-02-23T08:10:11.762Z,97423.31
2023-02-23T08:12:39.982Z,97411.59
2023-02-23T08:15:09.074Z,97411.56
2023-02-23T08:17:37.362Z,97410.31
2023-02-23T08:20:11.264Z,97405.09
2023-02-23T08:22:48.902Z,97407.66
2023-02-23T08:25:18.241Z,97401.88
2023-02-23T08:27:46.863Z,97402.50
2023-02-23T08:30:16.835Z,97393.34
2023-02-23T08:32:45.066Z,97392.53
2023-02-23T08:35:15.127Z,97393.06
2023-02-23T08:37:43.287Z,97397.66
2023-02-23T08:40:15.509Z,97395.34
2023-02-23T08:42:43.726Z,97398.00
2023-02-23T08:45:13.481Z,97392.63
2023-02-23T08:47:41.739Z,97392.03
2023-02-23T08:50:11.990Z,97391.38
2023-02-23T08:52:42.582Z,97393.84
2023-02-23T08:55:14.137Z,97402.47
2023-02-23T08:57:42.395Z,97398.91
2023-02-23T09:00:16.788Z,97394.22
2023-02-23T09:02:48.155Z,97401.59
2023-02-23T09:05:17.257Z,97411.41
2023-02-23T09:07:49.228Z,97413.59
2023-02-23T09:10:24.918Z,97410.91
2023-02-23T09:12:53.133Z,97405.09
2023-02-23T09:15:21.524Z,97416.44
2023-02-23T09:17:49.695Z,97404.28
2023-02-23T09:20:18.764Z,97414.47
2023-02-23T09:22:49.760Z,97412.41
2023-02-23T09:25:19.233Z,97425.53
2023-02-23T09:27:47.500Z,97412.25
2023-02-23T09:30:17.869Z,97412.84
2023-02-23T09:32:46.514Z,97428.44
2023-02-23T09:35:18.028Z,97410.41
2023-02-23T09:37:47.431Z,97415.25
2023-02-23T09:40:18.946Z,97407.16
2023-02-23T09:42:59.206Z,97416.69
2023-02-23T09:45:34.661Z,97416.88
2023-02-23T09:48:12.792Z,97414.81
2023-02-23T09:50:46.237Z,97418.53
2023-02-23T09:53:25.484Z,97421.09
2023-02-23T09:55:57.572Z,97419.25
2023-02-23T09:58:27.639Z,97423.75
2023-02-23T10:01:24.008Z,97412.97
2023-02-23T10:03:58.288Z,97418.06
2023-02-23T10:06:27.437Z,97417.91
2023-02-23T10:09:10.050Z,97417.28
2023-02-23T10:11:46.818Z,97424.22
2023-02-23T10:14:41.949Z,97415.38
2023-02-23T10:17:22.329Z,97415.59
2023-02-23T10:19:57.455Z,97420.09
2023-02-23T10:22:27.018Z,97409.38
2023-02-23T10:24:58.136Z,97408.91
2023-02-23T10:27:33.794Z,97416.81
2023-02-23T10:30:04.978Z,97410.78
2023-02-23T10:32:41.651Z,97409.69
2023-02-23T10:35:13.492Z,97411.28
2023-02-23T10:37:41.696Z,97408.41
2023-02-23T10:40:16.559Z,97409.34
2023-02-23T10:42:46.164Z,97405.00
2023-02-23T10:45:22.757Z,97395.69
2023-02-23T10:47:58.858Z,97386.81
2023-02-23T10:50:29.145Z,97397.19
2023-02-23T10:53:01.495Z,97386.03
2023-02-23T10:55:31.804Z,97389.72
2023-02-23T10:58:10.859Z,97384.22
2023-02-23T11:00:41.087Z,97385.91
2023-02-23T11:03:20.413Z,97378.41
2023-02-23T11:05:53.212Z,97377.50
2023-02-23T11:08:29.236Z,97374.22
2023-02-23T11:11:17.639Z,97371.38
2023-02-23T11:13:48.740Z,97364.78
2023-02-23T11:16:19.803Z,97366.28
2023-02-23T11:18:55.444Z,97357.88
2023-02-23T11:21:26.662Z,97363.19
2023-02-23T11:23:57.410Z,97352.16
2023-02-23T11:26:38.506Z,97352.91
2023-02-23T11:29:17.675Z,97343.97
2023-02-23T11:31:51.302Z,97339.09
2023-02-23T11:34:29.488Z,97340.41
2023-02-23T11:37:04.726Z,97331.88
2023-02-23T11:39:32.885Z,97336.38
2023-02-23T11:42:20.139Z,97334.44
2023-02-23T11:45:03.294Z,97334.22
2023-02-23T11:47:33.482Z,97332.66
2023-02-23T11:50:02.448Z,97333.81
2023-02-23T11:52:31.441Z,97326.88
2023-02-23T11:55:01.733Z,97325.44
2023-02-23T11:57:33.714Z,97334.22
2023-02-23T12:00:13.094Z,97330.19
2023-02-23T12:02:51.007Z,97323.22
2023-02-23T12:05:23.403Z,97319.78
2023-02-23T12:07:58.943Z,97325.72
2023-02-23T12:10:32.148Z,97325.34
2023-02-23T12:13:09.773Z,97320.22
2023-02-23T12:15:48.024Z,97316.41
2023-02-23T12:18:28.241Z,97317.38
2023-02-23T12:21:02.749Z,97302.19
2023-02-23T12:23:34.923Z,97310.03
2023-02-23T12:26:07.968Z,97311.28
2023-02-23T12:28:41.839Z,97304.94
2023-02-23T12:31:24.661Z,97303.00
2023-02-23T12:33:59.994Z,97310.75
2023-02-23T12:36:38.571Z,97301.84
2023-02-23T12:39:18.007Z,97298.88
2023-02-23T12:41:52.588Z,97299.63
2023-02-23T12:44:35.482Z,97295.13
2023-02-23T12:47:10.343Z,97299.28
2023-02-23T12:49:45.498Z,97280.38
2023-02-23T12:52:20.207Z,97288.78
2023-02-23T12:54:49.214Z,97289.22
2023-02-23T12:57:28.481Z,97285.94
2023-02-23T13:00:31.658Z,97284.94
2023-02-23T13:03:23.981Z,97289.88
2023-02-23T13:05:57.801Z,97287.94
2023-02-23T13:08:35.781Z,97287.84
2023-02-23T13:11:12.888Z,97278.63
2023-02-23T13:13:47.943Z,97284.66
2023-02-23T13:16:25.253Z,97287.22
2023-02-23T13:19:12.073Z,97274.78
2023-02-23T13:21:45.912Z,97278.50
2023-02-23T13:24:19.115Z,97278.03
2023-02-23T13:26:54.077Z,97279.19
2023-02-23T13:29:31.859Z,97273.25
2023-02-23T13:32:01.933Z,97279.44
2023-02-23T13:34:35.782Z,97281.53
2023-02-23T13:37:07.445Z,97279.81
2023-02-23T13:40:00.748Z,97285.28
2023-02-23T13:42:44.394Z,97287.16
2023-02-23T13:45:33.355Z,97277.97
2023-02-23T13:48:07.844Z,97282.53
2023-02-23T13:50:46.642Z,97287.72
2023-02-23T13:53:34.890Z,97289.09
2023-02-23T13:56:08.444Z,97293.03
2023-02-23T13:58:37.171Z,97286.44
2023-02-23T14:01:10.173Z,97288.13
2023-02-23T14:03:44.897Z,97290.03
2023-02-23T14:06:19.065Z,97281.53
2023-02-23T14:08:54.284Z,97290.44
2023-02-23T14:11:42.519Z,97291.25
2023-02-23T14:14:13.750Z,97286.72
2023-02-23T14:16:42.110Z,97294.06
2023-02-23T14:19:36.776Z,97287.47
2023-02-23T14:22:11.122Z,97293.81
2023-02-23T14:24:39.361Z,97278.91
2023-02-23T14:27:41.095Z,97286.03
2023-02-23T14:30:44.505Z,97286.97
2023-02-23T14:33:38.164Z,97279.34
2023-02-23T14:36:41.622Z,97274.44
2023-02-23T14:39:19.453Z,97283.53
2023-02-23T14:41:51.976Z,97279.06
2023-02-23T14:44:29.688Z,97276.44
2023-02-23T14:47:03.670Z,97277.19
2023-02-23T14:49:36.939Z,97273.00
2023-02-23T14:52:10.934Z,97260.44
2023-02-23T14:54:41.849Z,97269.38
2023-02-23T14:57:20.241Z,97282.63
2023-02-23T14:59:59.445Z,97279.03
2023-02-23T15:02:29.734Z,97275.97
2023-02-23T15:04:58.464Z,97277.66
2023-02-23T15:07:32.761Z,97280.63
2023-02-23T15:10:04.887Z,97281.06
2023-02-23T15:12:38.143Z,97275.78
2023-02-23T15:15:15.463Z,97270.13
2023-02-23T15:17:46.805Z,97269.94
2023-02-23T15:20:18.767Z,97272.59
2023-02-23T15:22:52.353Z,97269.31
2023-02-23T15:25:27.480Z,97265.81
2023-02-23T15:27:56.154Z,97265.41
2023-02-23T15:30:27.822Z,97269.22
2023-02-23T15:33:04.526Z,97269.03
2023-02-23T15:35:38.383Z,97274.88
2023-02-23T15:38:18.221Z,97267.34
2023-02-23T15:40:59.369Z,97260.97
2023-02-23T15:43:29.986Z,97265.03
2023-02-23T15:46:04.365Z,97252.59
2023-02-23T15:48:45.943Z,97262.25
2023-02-23T15:51:25.546Z,97263.75
2023-02-23T15:53:55.408Z,97266.81
2023-02-23T15:56:28.122Z,97257.56
2023-02-23T15:58:58.932Z,97261.69
2023-02-23T16:01:30.581Z,97265.84
2023-02-23T16:04:07.313Z,97268.78
2023-02-23T16:06:38.530Z,97262.44
2023-02-23T16:09:20.976Z,97259.22
2023-02-23T16:11:53.813Z,97262.19
2023-02-23T16:14:24.475Z,97256.09
2023-02-23T16:17:10.483Z,97256.97
2023-02-23T16:19:42.039Z,97269.97
2023-02-23T16:22:22.442Z,97257.16
2023-02-23T16:24:59.783Z,97259.25
2023-02-23T16:27:31.395Z,97262.41
2023-02-23T16:30:07.057Z,97264.41
2023-02-23T16:32:38.851Z,97269.91
2023-02-23T16:35:16.567Z,97268.63
2023-02-23T16:37:57.156Z,97273.06
2023-02-23T16:40:25.647Z,97276.28
2023-02-23T16:42:59.839Z,97265.59
2023-02-23T16:45:29.913Z,97275.59
2023-02-23T16:48:02.721Z,97271.91
2023-02-23T16:50:33.853Z,97273.28
2023-02-23T16:53:04.299Z,97275.38
2023-02-23T16:55:40.449Z,97275.50
2023-02-23T16:58:17.330Z,97271.09
2023-02-23T17:00:46.316Z,97271.94
2023-02-23T17:03:20.451Z,97280.47
2023-02-23T17:05:50.453Z,97282.59
2023-02-23T17:08:19.318Z,97275.47
2023-02-23T17:10:50.966Z,97276.25
2023-02-23T17:13:22.777Z,97283.69
2023-02-23T17:15:56.763Z,97282.66
2023-02-23T17:18:27.417Z,97281.75
2023-02-23T17:20:58.898Z,97277.59
2023-02-23T17:23:38.632Z,97285.59
2023-02-23T17:26:09.811Z,97288.94
2023-02-23T17:28:43.039Z,97291.41
2023-02-23T17:31:12.223Z,97286.31
2023-02-23T17:33:41.527Z,97280.94
2023-02-23T17:36:12.635Z,97293.25
2023-02-23T17:38:44.504Z,97277.59
2023-02-23T17:41:17.602Z,97290.13
2023-02-23T17:43:48.490Z,97292.03
2023-02-23T17:46:19.870Z,97294.59
2023-02-23T17:48:49.213Z,97299.47
2023-02-23T17:51:20.437Z,97298.97
2023-02-23T17:53:50.744Z,97300.34
2023-02-23T17:56:20.715Z,97301.63
2023-02-23T17:58:52.039Z,97298.28
2023-02-23T18:01:21.819Z,97294.50
2023-02-23T18:03:51.641Z,97302.56
2023-02-23T18:06:21.167Z,97295.16
2023-02-23T18:08:52.276Z,97294.69
2023-02-23T18:11:24.343Z,97294.28
2023-02-23T18:13:55.460Z,97290.94
2023-02-23T18:16:25.059Z,97290.41
2023-02-23T18:18:58.460Z,97295.06
2023-02-23T18:21:29.050Z,97293.75
2023-02-23T18:23:58.797Z,97289.91
2023-02-23T18:26:27.815Z,97290.03
2023-02-23T18:28:58.847Z,97292.59
2023-02-23T18:31:30.266Z,97292.91
2023-02-23T18:34:02.031Z,97288.78
2023-02-23T18:36:32.994Z,97295.00
2023-02-23T18:39:02.875Z,97291.84
2023-02-23T18:41:32.311Z,97294.75
2023-02-23T18:44:05.186Z,97298.41
2023-02-23T18:46:38.272Z,97302.06
2023-02-23T18:49:08.002Z,97298.69
2023-02-23T18:51:40.068Z,97296.97
2023-02-23T18:54:21.559Z,97282.25
2023-02-23T18:56:51.944Z,97283.97
2023-02-23T18:59:26.459Z,97283.06
2023-02-23T19:01:57.744Z,97285.94
2023-02-23T19:04:27.584Z,97279.84
2023-02-23T19:06:57.214Z,97288.41
2023-02-23T19:09:27.163Z,97285.88
2023-02-23T19:11:57.029Z,97277.22
2023-02-23T19:14:47.774Z,97281.72
2023-02-23T19:17:18.141Z,97281.63
2023-02-23T19:19:50.957Z,97273.75
2023-02-23T19:22:20.618Z,97266.00
2023-02-23T19:24:52.589Z,97271.91
2023-02-23T19:27:22.281Z,97271.97
2023-02-23T19:29:55.428Z,97278.94
2023-02-23T19:32:25.476Z,97279.78
2023-02-23T19:34:55.024Z,97275.19
2023-02-23T19:37:25.636Z,97275.31
2023-02-23T19:39:56.147Z,97283.06
2023-02-23T19:42:26.807Z,97283.72
2023-02-23T19:44:59.546Z,97281.25
2023-02-23T19:47:31.231Z,97284.63
2023-02-23T19:50:02.151Z,97281.09
2023-02-23T19:52:32.953Z,97277.44
2023-02-23T19:55:03.637Z,97274.56
2023-02-23T19:57:35.728Z,97275.63
2023-02-23T20:00:12.665Z,97275.47
2023-02-23T20:02:43.864Z,97273.75
2023-02-23T20:05:15.870Z,97275.34
2023-02-23T20:07:47.753Z,97273.50
2023-02-23T20:10:26.204Z,97268.13
2023-02-23T20:12:59.031Z,97270.69
2023-02-23T20:15:30.506Z,97263.00
2023-02-23T20:18:03.040Z,97268.72
2023-02-23T20:20:35.303Z,97273.00
2023-02-23T20:23:08.239Z,97267.59
2023-02-23T20:25:45.687Z,97271.00
2023-02-23T20:28:16.676Z,97270.03
2023-02-23T20:30:51.133Z,97267.09
2023-02-23T20:33:23.983Z,97267.72
2023-02-23T20:35:55.047Z,97264.72
2023-02-23T20:38:25.598Z,97265.97
2023-02-23T20:40:55.548Z,97269.38
2023-02-23T20:43:25.479Z,97264.88
2023-02-23T20:46:00.976Z,97262.19
2023-02-23T20:48:32.607Z,97263.06
2023-02-23T20:51:04.923Z,97269.09
2023-02-23T20:53:35.056Z,97259.47
2023-02-23T20:56:07.452Z,97263.00
2023-02-23T20:58:38.059Z,97266.16
2023-02-23T21:01:15.475Z,97253.66
2023-02-23T21:03:44.927Z,97258.97
2023-02-23T21:06:16.605Z,97258.13
2023-02-23T21:08:56.147Z,97253.66
2023-02-23T21:11:27.287Z,97258.03
2023-02-23T21:13:57.313Z,97258.00
2023-02-23T21:16:32.807Z,97253.66
2023-02-23T21:19:08.590Z,97253.53
2023-02-23T21:21:41.302Z,97244.72
2023-02-23T21:24:11.605Z,97242.81
2023-02-23T21:26:40.709Z,97246.28
2023-02-23T21:29:16.566Z,97251.41
2023-02-23T21:31:49.334Z,97246.06
2023-02-23T21:34:22.519Z,97226.41
2023-02-23T21:36:54.685Z,97240.75
2023-02-23T21:39:23.154Z,97236.06
2023-02-23T21:41:52.214Z,97232.47
2023-02-23T21:44:21.038Z,97228.19
2023-02-23T21:46:51.812Z,97232.94
2023-02-23T21:49:21.035Z,97229.41
2023-02-23T21:51:49.919Z,97232.47
2023-02-23T21:54:19.402Z,97233.72
2023-02-23T21:56:48.053Z,97228.53
2023-02-23T21:59:17.007Z,97232.03
2023-02-23T22:01:47.492Z,97226.75
2023-02-23T22:04:17.201Z,97229.91
2023-02-23T22:06:48.228Z,97228.28
2023-02-23T22:09:16.664Z,97222.75
2023-02-23T22:11:46.790Z,97220.91
2023-02-23T22:14:16.801Z,97225.31
2023-02-23T22:16:45.366Z,97226.72
2023-02-23T22:19:14.346Z,97228.84
2023-02-23T22:21:45.568Z,97212.19
2023-02-23T22:24:15.657Z,97206.06
2023-02-23T22:26:50.462Z,97207.84
2023-02-23T22:29:18.863Z,97203.56
2023-02-23T22:31:47.280Z,97209.53
2023-02-23T22:34:16.018Z,97203.34
2023-02-23T22:36:46.617Z,97199.59
2023-02-23T22:39:18.957Z,97202.84
2023-02-23T22:41:48.381Z,97198.59
2023-02-23T22:44:19.158Z,97199.44
2023-02-23T22:46:49.645Z,97199.59
2023-02-23T22:49:20.164Z,97199.59
2023-02-23T22:51:50.572Z,97195.03
2023-02-23T22:54:20.496Z,97193.06
2023-02-23T22:56:49.051Z,97192.06
2023-02-23T22:59:17.766Z,97182.34
2023-02-23T23:01:47.530Z,97187.69
2023-02-23T23:04:16.212Z,97183.84
2023-02-23T23:06:44.940Z,97172.63
2023-02-23T23:09:16.598Z,97178.88
2023-02-23T23:11:44.984Z,97181.50
2023-02-23T23:14:13.557Z,97177.94
2023-02-23T23:16:48.160Z,97168.09
2023-02-23T23:19:18.158Z,97166.56
2023-02-23T23:21:46.564Z,97166.66
2023-02-23T23:24:16.434Z,97171.19
2023-02-23T23:26:45.331Z,97174.75
2023-02-23T23:29:15.779Z,97173.03
2023-02-23T23:31:46.571Z,97164.59
2023-02-23T23:34:17.243Z,97161.84
2023-02-23T23:36:49.156Z,97157.28
2023-02-23T23:39:20.439Z,97147.78
2023-02-23T23:41:49.425Z,97154.59
2023-02-23T23:44:18.500Z,97144.50
2023-02-23T23:46:47.453Z,97153.34
2023-02-23T23:49:17.817Z,97147.63
2023-02-23T23:51:50.064Z,97140.91
2023-02-23T23:54:22.306Z,97137.41
2023-02-23T23:56:51.375Z,97138.34
2023-02-23T23:59:21.404Z,97126.63
